sensor_id;sensor_type;location;lat;lon;timestamp;temperature;humidity
4795;DHT22;2411;47.060;15.064;2023-04-08T00:00:49;4.10;1.00
4795;DHT22;2411;47.060;15.064;2023-04-08T00:03:17;4.10;1.00
4795;DHT22;2411;47.060;15.064;2023-04-08T00:05:45;4.30;1.00
4795;DHT22;2411;47.060;15.064;2023-04-08T00:08:12;4.30;1.00
4795;DHT22;2411;47.060;15.064;2023-04-08T00:10:40;4.10;1.00
4795;DHT22;2411;47.060;15.064;2023-04-08T00:13:07;4.10;1.00
4795;DHT22;2411;47.060;15.064;2023-04-08T00:15:35;4.00;1.00
4795;DHT22;2411;47.060;15.064;2023-04-08T00:18:03;4.10;1.00
4795;DHT22;2411;47.060;15.064;2023-04-08T00:20:30;4.10;1.00
4795;DHT22;2411;47.060;15.064;2023-04-08T00:22:58;3.90;1.00
4795;DHT22;2411;47.060;15.064;2023-04-08T00:25:25;4.00;1.00
4795;DHT22;2411;47.060;15.064;2023-04-08T00:27:52;3.90;1.00
4795;DHT22;2411;47.060;15.064;2023-04-08T00:30:19;3.90;1.00
4795;DHT22;2411;47.060;15.064;2023-04-08T00:32:47;3.80;1.00
4795;DHT22;2411;47.060;15.064;2023-04-08T00:35:14;3.80;1.00
4795;DHT22;2411;47.060;15.064;2023-04-08T00:37:42;3.70;1.00
4795;DHT22;2411;47.060;15.064;2023-04-08T00:40:09;3.80;1.00
4795;DHT22;2411;47.060;15.064;2023-04-08T00:42:37;3.90;1.00
4795;DHT22;2411;47.060;15.064;2023-04-08T00:45:04;4.00;1.00
4795;DHT22;2411;47.060;15.064;2023-04-08T00:47:32;4.10;1.00
4795;DHT22;2411;47.060;15.064;2023-04-08T00:50:02;4.10;1.00
4795;DHT22;2411;47.060;15.064;2023-04-08T00:52:30;4.20;1.00
4795;DHT22;2411;47.060;15.064;2023-04-08T00:54:57;4.20;1.00
4795;DHT22;2411;47.060;15.064;2023-04-08T00:57:24;4.20;1.00
4795;DHT22;2411;47.060;15.064;2023-04-08T00:59:52;4.10;1.00
4795;DHT22;2411;47.060;15.064;2023-04-08T01:02:30;4.00;1.00
4795;DHT22;2411;47.060;15.064;2023-04-08T01:05:30;3.90;1.00
4795;DHT22;2411;47.060;15.064;2023-04-08T01:08:06;4.00;1.00
4795;DHT22;2411;47.060;15.064;2023-04-08T01:10:36;4.00;1.00
4795;DHT22;2411;47.060;15.064;2023-04-08T01:13:08;3.90;1.00
4795;DHT22;2411;47.060;15.064;2023-04-08T01:15:38;3.90;1.00
4795;DHT22;2411;47.060;15.064;2023-04-08T01:18:09;3.90;1.00
4795;DHT22;2411;47.060;15.064;2023-04-08T01:20:40;4.00;1.00
4795;DHT22;2411;47.060;15.064;2023-04-08T01:23:42;4.00;1.00
4795;DHT22;2411;47.060;15.064;2023-04-08T01:26:01;4.00;1.00
4795;DHT22;2411;47.060;15.064;2023-04-08T01:28:30;4.00;1.00
4795;DHT22;2411;47.060;15.064;2023-04-08T01:30:59;4.00;1.00
4795;DHT22;2411;47.060;15.064;2023-04-08T01:33:27;4.00;1.00
4795;DHT22;2411;47.060;15.064;2023-04-08T01:35:56;3.90;1.00
4795;DHT22;2411;47.060;15.064;2023-04-08T01:38:25;3.90;1.00
4795;DHT22;2411;47.060;15.064;2023-04-08T01:40:56;3.70;1.00
4795;DHT22;2411;47.060;15.064;2023-04-08T01:43:24;3.60;1.00
4795;DHT22;2411;47.060;15.064;2023-04-08T01:45:53;3.60;1.00
4795;DHT22;2411;47.060;15.064;2023-04-08T01:48:24;3.60;1.00
4795;DHT22;2411;47.060;15.064;2023-04-08T01:50:54;3.50;1.00
4795;DHT22;2411;47.060;15.064;2023-04-08T01:53:22;3.40;1.00
4795;DHT22;2411;47.060;15.064;2023-04-08T01:56:08;3.40;1.00
4795;DHT22;2411;47.060;15.064;2023-04-08T01:58:41;3.50;1.00
4795;DHT22;2411;47.060;15.064;2023-04-08T02:01:11;3.50;1.00
4795;DHT22;2411;47.060;15.064;2023-04-08T02:03:42;3.70;1.00
4795;DHT22;2411;47.060;15.064;2023-04-08T02:06:10;3.70;1.00
4795;DHT22;2411;47.060;15.064;2023-04-08T02:08:38;3.80;1.00
4795;DHT22;2411;47.060;15.064;2023-04-08T02:11:05;3.90;1.00
4795;DHT22;2411;47.060;15.064;2023-04-08T02:13:33;3.80;1.00
4795;DHT22;2411;47.060;15.064;2023-04-08T02:16:05;3.90;1.00
4795;DHT22;2411;47.060;15.064;2023-04-08T02:18:36;4.00;1.00
4795;DHT22;2411;47.060;15.064;2023-04-08T02:21:12;4.00;1.00
4795;DHT22;2411;47.060;15.064;2023-04-08T02:23:41;4.10;1.00
4795;DHT22;2411;47.060;15.064;2023-04-08T02:26:13;4.00;1.00
4795;DHT22;2411;47.060;15.064;2023-04-08T02:28:41;4.10;1.00
4795;DHT22;2411;47.060;15.064;2023-04-08T02:31:10;4.00;1.00
4795;DHT22;2411;47.060;15.064;2023-04-08T02:33:41;3.90;1.00
4795;DHT22;2411;47.060;15.064;2023-04-08T02:36:10;3.80;1.00
4795;DHT22;2411;47.060;15.064;2023-04-08T02:38:38;3.80;1.00
4795;DHT22;2411;47.060;15.064;2023-04-08T02:41:05;3.70;1.00
4795;DHT22;2411;47.060;15.064;2023-04-08T02:43:32;3.50;1.00
4795;DHT22;2411;47.060;15.064;2023-04-08T02:46:00;3.50;1.00
4795;DHT22;2411;47.060;15.064;2023-04-08T02:48:30;3.40;1.00
4795;DHT22;2411;47.060;15.064;2023-04-08T02:50:57;3.50;1.00
4795;DHT22;2411;47.060;15.064;2023-04-08T02:53:25;3.60;1.00
4795;DHT22;2411;47.060;15.064;2023-04-08T02:55:52;3.80;1.00
4795;DHT22;2411;47.060;15.064;2023-04-08T02:58:19;3.80;1.00
4795;DHT22;2411;47.060;15.064;2023-04-08T03:00:47;3.70;1.00
4795;DHT22;2411;47.060;15.064;2023-04-08T03:03:14;3.70;1.00
4795;DHT22;2411;47.060;15.064;2023-04-08T03:05:42;3.80;1.00
4795;DHT22;2411;47.060;15.064;2023-04-08T03:08:09;3.70;1.00
4795;DHT22;2411;47.060;15.064;2023-04-08T03:10:37;3.90;1.00
4795;DHT22;2411;47.060;15.064;2023-04-08T03:13:04;3.80;1.00
4795;DHT22;2411;47.060;15.064;2023-04-08T03:15:31;3.80;1.00
4795;DHT22;2411;47.060;15.064;2023-04-08T03:17:59;3.90;1.00
4795;DHT22;2411;47.060;15.064;2023-04-08T03:20:26;4.00;1.00
4795;DHT22;2411;47.060;15.064;2023-04-08T03:22:54;4.00;1.00
4795;DHT22;2411;47.060;15.064;2023-04-08T03:25:21;4.20;1.00
4795;DHT22;2411;47.060;15.064;2023-04-08T03:27:48;4.20;1.00
4795;DHT22;2411;47.060;15.064;2023-04-08T03:30:15;4.20;1.00
4795;DHT22;2411;47.060;15.064;2023-04-08T03:32:43;4.20;1.00
4795;DHT22;2411;47.060;15.064;2023-04-08T03:35:10;4.10;1.00
4795;DHT22;2411;47.060;15.064;2023-04-08T03:37:38;4.00;1.00
4795;DHT22;2411;47.060;15.064;2023-04-08T03:40:05;4.00;1.00
4795;DHT22;2411;47.060;15.064;2023-04-08T03:42:33;4.00;1.00
4795;DHT22;2411;47.060;15.064;2023-04-08T03:45:01;4.00;1.00
4795;DHT22;2411;47.060;15.064;2023-04-08T03:47:28;4.00;1.00
4795;DHT22;2411;47.060;15.064;2023-04-08T03:49:56;4.00;1.00
4795;DHT22;2411;47.060;15.064;2023-04-08T03:52:24;4.00;1.00
4795;DHT22;2411;47.060;15.064;2023-04-08T03:54:51;4.10;1.00
4795;DHT22;2411;47.060;15.064;2023-04-08T03:57:19;4.20;1.00
4795;DHT22;2411;47.060;15.064;2023-04-08T03:59:46;4.20;1.00
4795;DHT22;2411;47.060;15.064;2023-04-08T04:02:13;4.10;1.00
4795;DHT22;2411;47.060;15.064;2023-04-08T04:04:41;4.20;1.00
4795;DHT22;2411;47.060;15.064;2023-04-08T04:07:08;4.20;1.00
4795;DHT22;2411;47.060;15.064;2023-04-08T04:09:36;4.10;1.00
4795;DHT22;2411;47.060;15.064;2023-04-08T04:12:03;4.10;1.00
4795;DHT22;2411;47.060;15.064;2023-04-08T04:14:30;4.00;1.00
4795;DHT22;2411;47.060;15.064;2023-04-08T04:16:58;4.10;1.00
4795;DHT22;2411;47.060;15.064;2023-04-08T04:19:29;4.10;1.00
4795;DHT22;2411;47.060;15.064;2023-04-08T04:21:57;4.00;1.00
4795;DHT22;2411;47.060;15.064;2023-04-08T04:24:24;4.10;1.00
4795;DHT22;2411;47.060;15.064;2023-04-08T04:26:52;4.10;1.00
4795;DHT22;2411;47.060;15.064;2023-04-08T04:29:19;4.10;1.00
4795;DHT22;2411;47.060;15.064;2023-04-08T04:31:46;4.10;1.00
4795;DHT22;2411;47.060;15.064;2023-04-08T04:34:14;4.10;1.00
4795;DHT22;2411;47.060;15.064;2023-04-08T04:36:42;4.20;1.00
4795;DHT22;2411;47.060;15.064;2023-04-08T04:39:09;4.10;1.00
4795;DHT22;2411;47.060;15.064;2023-04-08T04:41:37;4.00;1.00
4795;DHT22;2411;47.060;15.064;2023-04-08T04:44:06;4.00;1.00
4795;DHT22;2411;47.060;15.064;2023-04-08T04:46:33;4.00;1.00
4795;DHT22;2411;47.060;15.064;2023-04-08T04:49:01;4.00;1.00
4795;DHT22;2411;47.060;15.064;2023-04-08T04:51:30;3.90;1.00
4795;DHT22;2411;47.060;15.064;2023-04-08T04:53:59;3.90;1.00
4795;DHT22;2411;47.060;15.064;2023-04-08T04:56:26;3.90;1.00
4795;DHT22;2411;47.060;15.064;2023-04-08T04:58:53;3.90;1.00
4795;DHT22;2411;47.060;15.064;2023-04-08T05:01:21;4.00;1.00
4795;DHT22;2411;47.060;15.064;2023-04-08T05:03:48;4.10;1.00
4795;DHT22;2411;47.060;15.064;2023-04-08T05:06:15;4.10;1.00
4795;DHT22;2411;47.060;15.064;2023-04-08T05:08:43;4.00;1.00
4795;DHT22;2411;47.060;15.064;2023-04-08T05:11:10;4.00;1.00
4795;DHT22;2411;47.060;15.064;2023-04-08T05:13:38;4.10;1.00
4795;DHT22;2411;47.060;15.064;2023-04-08T05:16:06;4.00;1.00
4795;DHT22;2411;47.060;15.064;2023-04-08T05:18:33;4.00;1.00
4795;DHT22;2411;47.060;15.064;2023-04-08T05:21:01;4.10;1.00
4795;DHT22;2411;47.060;15.064;2023-04-08T05:23:29;4.10;1.00
4795;DHT22;2411;47.060;15.064;2023-04-08T05:25:56;4.00;1.00
4795;DHT22;2411;47.060;15.064;2023-04-08T05:28:23;4.00;1.00
4795;DHT22;2411;47.060;15.064;2023-04-08T05:30:52;4.10;1.00
4795;DHT22;2411;47.060;15.064;2023-04-08T05:33:19;4.10;1.00
4795;DHT22;2411;47.060;15.064;2023-04-08T05:35:47;4.10;1.00
4795;DHT22;2411;47.060;15.064;2023-04-08T05:38:14;4.00;1.00
4795;DHT22;2411;47.060;15.064;2023-04-08T05:40:41;4.00;1.00
4795;DHT22;2411;47.060;15.064;2023-04-08T05:43:09;4.10;1.00
4795;DHT22;2411;47.060;15.064;2023-04-08T05:45:36;4.10;1.00
4795;DHT22;2411;47.060;15.064;2023-04-08T05:48:03;4.10;1.00
4795;DHT22;2411;47.060;15.064;2023-04-08T05:50:32;4.10;1.00
4795;DHT22;2411;47.060;15.064;2023-04-08T05:53:00;4.20;1.00
4795;DHT22;2411;47.060;15.064;2023-04-08T05:55:28;4.20;1.00
4795;DHT22;2411;47.060;15.064;2023-04-08T05:57:55;4.20;1.00
4795;DHT22;2411;47.060;15.064;2023-04-08T06:00:22;4.30;1.00
4795;DHT22;2411;47.060;15.064;2023-04-08T06:02:50;4.40;1.00
4795;DHT22;2411;47.060;15.064;2023-04-08T06:05:17;4.30;1.00
4795;DHT22;2411;47.060;15.064;2023-04-08T06:07:45;4.30;1.00
4795;DHT22;2411;47.060;15.064;2023-04-08T06:10:12;4.30;1.00
4795;DHT22;2411;47.060;15.064;2023-04-08T06:12:39;4.30;1.00
4795;DHT22;2411;47.060;15.064;2023-04-08T06:15:07;4.30;1.00
4795;DHT22;2411;47.060;15.064;2023-04-08T06:17:36;4.20;1.00
4795;DHT22;2411;47.060;15.064;2023-04-08T06:20:05;4.10;1.00
4795;DHT22;2411;47.060;15.064;2023-04-08T06:22:32;4.10;1.00
4795;DHT22;2411;47.060;15.064;2023-04-08T06:25:00;3.80;1.00
4795;DHT22;2411;47.060;15.064;2023-04-08T06:27:27;3.80;1.00
4795;DHT22;2411;47.060;15.064;2023-04-08T06:29:54;3.70;1.00
4795;DHT22;2411;47.060;15.064;2023-04-08T06:32:22;3.60;1.00
4795;DHT22;2411;47.060;15.064;2023-04-08T06:34:49;3.50;1.00
4795;DHT22;2411;47.060;15.064;2023-04-08T06:37:17;3.70;1.00
4795;DHT22;2411;47.060;15.064;2023-04-08T06:39:44;3.60;1.00
4795;DHT22;2411;47.060;15.064;2023-04-08T06:42:11;3.80;1.00
4795;DHT22;2411;47.060;15.064;2023-04-08T06:44:38;3.70;1.00
4795;DHT22;2411;47.060;15.064;2023-04-08T06:47:06;3.70;1.00
4795;DHT22;2411;47.060;15.064;2023-04-08T06:49:33;3.70;1.00
4795;DHT22;2411;47.060;15.064;2023-04-08T06:52:01;3.70;1.00
4795;DHT22;2411;47.060;15.064;2023-04-08T06:54:28;3.60;1.00
4795;DHT22;2411;47.060;15.064;2023-04-08T06:56:55;3.50;1.00
4795;DHT22;2411;47.060;15.064;2023-04-08T06:59:22;3.80;1.00
4795;DHT22;2411;47.060;15.064;2023-04-08T07:01:50;3.70;1.00
4795;DHT22;2411;47.060;15.064;2023-04-08T07:04:18;3.70;1.00
4795;DHT22;2411;47.060;15.064;2023-04-08T07:06:46;3.90;1.00
4795;DHT22;2411;47.060;15.064;2023-04-08T07:09:13;3.80;1.00
4795;DHT22;2411;47.060;15.064;2023-04-08T07:11:40;3.70;1.00
4795;DHT22;2411;47.060;15.064;2023-04-08T07:14:09;3.70;1.00
4795;DHT22;2411;47.060;15.064;2023-04-08T07:16:37;3.80;1.00
4795;DHT22;2411;47.060;15.064;2023-04-08T07:19:04;3.90;1.00
4795;DHT22;2411;47.060;15.064;2023-04-08T07:21:31;3.80;1.00
4795;DHT22;2411;47.060;15.064;2023-04-08T07:23:59;4.00;1.00
4795;DHT22;2411;47.060;15.064;2023-04-08T07:26:27;3.80;1.00
4795;DHT22;2411;47.060;15.064;2023-04-08T07:28:54;3.80;1.00
4795;DHT22;2411;47.060;15.064;2023-04-08T07:31:22;3.90;1.00
4795;DHT22;2411;47.060;15.064;2023-04-08T07:33:49;3.80;1.00
4795;DHT22;2411;47.060;15.064;2023-04-08T07:36:16;4.00;1.00
4795;DHT22;2411;47.060;15.064;2023-04-08T07:38:44;4.10;1.00
4795;DHT22;2411;47.060;15.064;2023-04-08T07:41:12;4.20;1.00
4795;DHT22;2411;47.060;15.064;2023-04-08T07:43:39;4.10;1.00
4795;DHT22;2411;47.060;15.064;2023-04-08T07:46:07;4.20;1.00
4795;DHT22;2411;47.060;15.064;2023-04-08T07:48:35;4.10;1.00
4795;DHT22;2411;47.060;15.064;2023-04-08T07:51:04;4.30;1.00
4795;DHT22;2411;47.060;15.064;2023-04-08T07:53:37;4.30;1.00
4795;DHT22;2411;47.060;15.064;2023-04-08T07:56:14;4.20;1.00
4795;DHT22;2411;47.060;15.064;2023-04-08T07:58:42;4.10;1.00
4795;DHT22;2411;47.060;15.064;2023-04-08T08:01:17;4.20;1.00
4795;DHT22;2411;47.060;15.064;2023-04-08T08:03:53;4.40;1.00
4795;DHT22;2411;47.060;15.064;2023-04-08T08:06:21;4.40;1.00
4795;DHT22;2411;47.060;15.064;2023-04-08T08:08:51;4.50;1.00
4795;DHT22;2411;47.060;15.064;2023-04-08T08:11:18;4.70;1.00
4795;DHT22;2411;47.060;15.064;2023-04-08T08:13:45;4.70;1.00
4795;DHT22;2411;47.060;15.064;2023-04-08T08:16:13;4.80;1.00
4795;DHT22;2411;47.060;15.064;2023-04-08T08:18:40;4.70;1.00
4795;DHT22;2411;47.060;15.064;2023-04-08T08:21:08;4.80;1.00
4795;DHT22;2411;47.060;15.064;2023-04-08T08:23:36;5.00;1.00
4795;DHT22;2411;47.060;15.064;2023-04-08T08:26:08;4.90;1.00
4795;DHT22;2411;47.060;15.064;2023-04-08T08:28:37;4.80;1.00
4795;DHT22;2411;47.060;15.064;2023-04-08T08:31:05;4.80;1.00
4795;DHT22;2411;47.060;15.064;2023-04-08T08:33:33;4.90;1.00
4795;DHT22;2411;47.060;15.064;2023-04-08T08:36:00;4.80;1.00
4795;DHT22;2411;47.060;15.064;2023-04-08T08:38:28;4.80;1.00
4795;DHT22;2411;47.060;15.064;2023-04-08T08:40:56;4.70;1.00
4795;DHT22;2411;47.060;15.064;2023-04-08T08:43:25;4.70;1.00
4795;DHT22;2411;47.060;15.064;2023-04-08T08:45:52;4.70;1.00
4795;DHT22;2411;47.060;15.064;2023-04-08T08:48:20;5.00;1.00
4795;DHT22;2411;47.060;15.064;2023-04-08T08:50:50;5.00;1.00
4795;DHT22;2411;47.060;15.064;2023-04-08T08:53:18;5.10;1.00
4795;DHT22;2411;47.060;15.064;2023-04-08T08:55:46;5.00;1.00
4795;DHT22;2411;47.060;15.064;2023-04-08T08:58:17;4.90;1.00
4795;DHT22;2411;47.060;15.064;2023-04-08T09:00:45;4.90;1.00
4795;DHT22;2411;47.060;15.064;2023-04-08T09:03:22;4.80;1.00
4795;DHT22;2411;47.060;15.064;2023-04-08T09:06:00;4.70;1.00
4795;DHT22;2411;47.060;15.064;2023-04-08T09:08:36;4.60;1.00
4795;DHT22;2411;47.060;15.064;2023-04-08T09:11:18;4.80;1.00
4795;DHT22;2411;47.060;15.064;2023-04-08T09:13:46;4.70;1.00
4795;DHT22;2411;47.060;15.064;2023-04-08T09:16:15;4.90;1.00
4795;DHT22;2411;47.060;15.064;2023-04-08T09:18:45;5.00;1.00
4795;DHT22;2411;47.060;15.064;2023-04-08T09:21:15;5.00;1.00
4795;DHT22;2411;47.060;15.064;2023-04-08T09:23:48;4.90;1.00
4795;DHT22;2411;47.060;15.064;2023-04-08T09:26:16;4.90;1.00
4795;DHT22;2411;47.060;15.064;2023-04-08T09:28:58;4.90;1.00
4795;DHT22;2411;47.060;15.064;2023-04-08T09:31:32;4.90;1.00
4795;DHT22;2411;47.060;15.064;2023-04-08T09:34:08;4.90;1.00
4795;DHT22;2411;47.060;15.064;2023-04-08T09:36:36;4.80;1.00
4795;DHT22;2411;47.060;15.064;2023-04-08T09:39:04;4.90;1.00
4795;DHT22;2411;47.060;15.064;2023-04-08T09:41:34;4.90;1.00
4795;DHT22;2411;47.060;15.064;2023-04-08T09:44:06;5.10;1.00
4795;DHT22;2411;47.060;15.064;2023-04-08T09:49:43;5.10;1.00
4795;DHT22;2411;47.060;15.064;2023-04-08T09:52:29;5.30;1.00
4795;DHT22;2411;47.060;15.064;2023-04-08T09:55:04;5.60;1.00
4795;DHT22;2411;47.060;15.064;2023-04-08T09:57:45;5.70;1.00
4795;DHT22;2411;47.060;15.064;2023-04-08T10:00:17;5.80;1.00
4795;DHT22;2411;47.060;15.064;2023-04-08T10:02:57;5.60;1.00
4795;DHT22;2411;47.060;15.064;2023-04-08T10:05:26;5.80;1.00
4795;DHT22;2411;47.060;15.064;2023-04-08T10:07:55;6.00;1.00
4795;DHT22;2411;47.060;15.064;2023-04-08T10:10:24;6.00;1.00
4795;DHT22;2411;47.060;15.064;2023-04-08T10:12:52;6.00;1.00
4795;DHT22;2411;47.060;15.064;2023-04-08T10:17:56;5.80;1.00
4795;DHT22;2411;47.060;15.064;2023-04-08T10:20:46;5.80;1.00
4795;DHT22;2411;47.060;15.064;2023-04-08T10:23:17;5.80;1.00
4795;DHT22;2411;47.060;15.064;2023-04-08T10:25:46;5.70;1.00
4795;DHT22;2411;47.060;15.064;2023-04-08T10:30:54;5.60;1.00
4795;DHT22;2411;47.060;15.064;2023-04-08T10:36:00;5.50;1.00
4795;DHT22;2411;47.060;15.064;2023-04-08T10:38:41;5.40;1.00
4795;DHT22;2411;47.060;15.064;2023-04-08T10:41:12;5.40;1.00
4795;DHT22;2411;47.060;15.064;2023-04-08T10:43:40;5.70;1.00
4795;DHT22;2411;47.060;15.064;2023-04-08T10:46:09;5.70;1.00
4795;DHT22;2411;47.060;15.064;2023-04-08T10:48:37;5.60;1.00
4795;DHT22;2411;47.060;15.064;2023-04-08T10:51:05;5.60;1.00
4795;DHT22;2411;47.060;15.064;2023-04-08T10:53:34;5.80;1.00
4795;DHT22;2411;47.060;15.064;2023-04-08T10:58:47;5.60;1.00
4795;DHT22;2411;47.060;15.064;2023-04-08T11:01:14;5.60;1.00
4795;DHT22;2411;47.060;15.064;2023-04-08T11:03:42;5.80;1.00
4795;DHT22;2411;47.060;15.064;2023-04-08T11:06:10;5.80;1.00
4795;DHT22;2411;47.060;15.064;2023-04-08T11:08:37;5.90;1.00
4795;DHT22;2411;47.060;15.064;2023-04-08T11:11:06;6.00;1.00
4795;DHT22;2411;47.060;15.064;2023-04-08T11:13:39;6.00;1.00
4795;DHT22;2411;47.060;15.064;2023-04-08T11:16:18;6.10;1.00
4795;DHT22;2411;47.060;15.064;2023-04-08T11:18:46;6.40;1.00
4795;DHT22;2411;47.060;15.064;2023-04-08T11:21:14;6.40;1.00
4795;DHT22;2411;47.060;15.064;2023-04-08T11:23:42;6.40;1.00
4795;DHT22;2411;47.060;15.064;2023-04-08T11:26:10;6.50;1.00
4795;DHT22;2411;47.060;15.064;2023-04-08T11:28:38;6.50;1.00
4795;DHT22;2411;47.060;15.064;2023-04-08T11:31:06;6.50;1.00
4795;DHT22;2411;47.060;15.064;2023-04-08T11:33:35;6.40;1.00
4795;DHT22;2411;47.060;15.064;2023-04-08T11:36:02;6.20;1.00
4795;DHT22;2411;47.060;15.064;2023-04-08T11:38:38;6.00;1.00
4795;DHT22;2411;47.060;15.064;2023-04-08T11:41:08;6.20;1.00
4795;DHT22;2411;47.060;15.064;2023-04-08T11:43:37;6.20;1.00
4795;DHT22;2411;47.060;15.064;2023-04-08T11:46:10;6.20;1.00
4795;DHT22;2411;47.060;15.064;2023-04-08T11:48:38;6.20;1.00
4795;DHT22;2411;47.060;15.064;2023-04-08T11:51:07;6.10;1.00
4795;DHT22;2411;47.060;15.064;2023-04-08T11:53:38;6.30;1.00
4795;DHT22;2411;47.060;15.064;2023-04-08T11:56:19;6.30;1.00
4795;DHT22;2411;47.060;15.064;2023-04-08T11:58:46;6.10;1.00
4795;DHT22;2411;47.060;15.064;2023-04-08T12:01:14;6.20;1.00
4795;DHT22;2411;47.060;15.064;2023-04-08T12:04:13;6.00;1.00
4795;DHT22;2411;47.060;15.064;2023-04-08T12:06:41;6.20;1.00
4795;DHT22;2411;47.060;15.064;2023-04-08T12:09:13;6.10;1.00
4795;DHT22;2411;47.060;15.064;2023-04-08T12:11:40;6.20;1.00
4795;DHT22;2411;47.060;15.064;2023-04-08T12:14:08;6.20;1.00
4795;DHT22;2411;47.060;15.064;2023-04-08T12:16:35;6.20;1.00
4795;DHT22;2411;47.060;15.064;2023-04-08T12:19:03;6.00;1.00
4795;DHT22;2411;47.060;15.064;2023-04-08T12:21:30;5.90;1.00
4795;DHT22;2411;47.060;15.064;2023-04-08T12:23:58;5.90;1.00
4795;DHT22;2411;47.060;15.064;2023-04-08T12:26:25;5.90;1.00
4795;DHT22;2411;47.060;15.064;2023-04-08T12:28:53;5.90;1.00
4795;DHT22;2411;47.060;15.064;2023-04-08T12:31:20;6.00;1.00
4795;DHT22;2411;47.060;15.064;2023-04-08T12:33:48;5.90;1.00
4795;DHT22;2411;47.060;15.064;2023-04-08T12:36:16;6.00;1.00
4795;DHT22;2411;47.060;15.064;2023-04-08T12:38:44;6.00;1.00
4795;DHT22;2411;47.060;15.064;2023-04-08T12:41:11;5.90;1.00
4795;DHT22;2411;47.060;15.064;2023-04-08T12:43:39;6.00;1.00
4795;DHT22;2411;47.060;15.064;2023-04-08T12:46:06;5.90;1.00
4795;DHT22;2411;47.060;15.064;2023-04-08T12:48:33;6.00;1.00
4795;DHT22;2411;47.060;15.064;2023-04-08T12:51:01;6.00;1.00
4795;DHT22;2411;47.060;15.064;2023-04-08T12:53:29;6.00;1.00
4795;DHT22;2411;47.060;15.064;2023-04-08T12:55:56;5.90;1.00
4795;DHT22;2411;47.060;15.064;2023-04-08T12:58:24;5.90;1.00
4795;DHT22;2411;47.060;15.064;2023-04-08T13:00:51;6.00;1.00
4795;DHT22;2411;47.060;15.064;2023-04-08T13:03:19;6.10;1.00
4795;DHT22;2411;47.060;15.064;2023-04-08T13:05:46;6.10;1.00
4795;DHT22;2411;47.060;15.064;2023-04-08T13:08:14;6.00;1.00
4795;DHT22;2411;47.060;15.064;2023-04-08T13:10:42;6.20;1.00
4795;DHT22;2411;47.060;15.064;2023-04-08T13:13:10;6.20;1.00
4795;DHT22;2411;47.060;15.064;2023-04-08T13:15:40;6.20;1.00
4795;DHT22;2411;47.060;15.064;2023-04-08T13:18:07;6.20;1.00
4795;DHT22;2411;47.060;15.064;2023-04-08T13:20:34;6.20;1.00
4795;DHT22;2411;47.060;15.064;2023-04-08T13:23:02;6.30;1.00
4795;DHT22;2411;47.060;15.064;2023-04-08T13:25:30;6.30;1.00
4795;DHT22;2411;47.060;15.064;2023-04-08T13:27:57;6.20;1.00
4795;DHT22;2411;47.060;15.064;2023-04-08T13:30:24;6.20;1.00
4795;DHT22;2411;47.060;15.064;2023-04-08T13:32:52;6.20;1.00
4795;DHT22;2411;47.060;15.064;2023-04-08T13:35:19;6.20;1.00
4795;DHT22;2411;47.060;15.064;2023-04-08T13:37:46;6.10;1.00
4795;DHT22;2411;47.060;15.064;2023-04-08T13:40:14;6.10;1.00
4795;DHT22;2411;47.060;15.064;2023-04-08T13:42:41;6.00;1.00
4795;DHT22;2411;47.060;15.064;2023-04-08T13:45:09;6.00;1.00
4795;DHT22;2411;47.060;15.064;2023-04-08T13:47:36;6.00;1.00
4795;DHT22;2411;47.060;15.064;2023-04-08T13:50:08;5.90;1.00
4795;DHT22;2411;47.060;15.064;2023-04-08T13:52:35;6.10;1.00
4795;DHT22;2411;47.060;15.064;2023-04-08T13:55:03;6.10;1.00
4795;DHT22;2411;47.060;15.064;2023-04-08T13:57:30;6.20;1.00
4795;DHT22;2411;47.060;15.064;2023-04-08T13:59:58;6.10;1.00
4795;DHT22;2411;47.060;15.064;2023-04-08T14:02:25;6.00;1.00
4795;DHT22;2411;47.060;15.064;2023-04-08T14:04:53;5.90;1.00
4795;DHT22;2411;47.060;15.064;2023-04-08T14:07:20;6.00;1.00
4795;DHT22;2411;47.060;15.064;2023-04-08T14:09:47;6.00;1.00
4795;DHT22;2411;47.060;15.064;2023-04-08T14:12:15;6.00;1.00
4795;DHT22;2411;47.060;15.064;2023-04-08T14:14:42;6.00;1.00
4795;DHT22;2411;47.060;15.064;2023-04-08T14:17:09;5.90;1.00
4795;DHT22;2411;47.060;15.064;2023-04-08T14:19:36;6.00;1.00
4795;DHT22;2411;47.060;15.064;2023-04-08T14:22:04;6.10;1.00
4795;DHT22;2411;47.060;15.064;2023-04-08T14:24:31;6.00;1.00
4795;DHT22;2411;47.060;15.064;2023-04-08T14:26:58;5.90;1.00
4795;DHT22;2411;47.060;15.064;2023-04-08T14:29:26;5.90;1.00
4795;DHT22;2411;47.060;15.064;2023-04-08T14:31:53;5.70;1.00
4795;DHT22;2411;47.060;15.064;2023-04-08T14:34:20;5.80;1.00
4795;DHT22;2411;47.060;15.064;2023-04-08T14:36:48;5.70;1.00
4795;DHT22;2411;47.060;15.064;2023-04-08T14:39:15;5.70;1.00
4795;DHT22;2411;47.060;15.064;2023-04-08T14:41:42;5.80;1.00
4795;DHT22;2411;47.060;15.064;2023-04-08T14:44:10;5.50;1.00
4795;DHT22;2411;47.060;15.064;2023-04-08T14:46:37;5.50;1.00
4795;DHT22;2411;47.060;15.064;2023-04-08T14:49:05;5.60;1.00
4795;DHT22;2411;47.060;15.064;2023-04-08T14:51:33;5.60;1.00
4795;DHT22;2411;47.060;15.064;2023-04-08T14:54:00;5.50;1.00
4795;DHT22;2411;47.060;15.064;2023-04-08T14:56:28;5.50;1.00
4795;DHT22;2411;47.060;15.064;2023-04-08T14:58:55;5.50;1.00
4795;DHT22;2411;47.060;15.064;2023-04-08T15:01:22;5.40;1.00
4795;DHT22;2411;47.060;15.064;2023-04-08T15:03:50;5.30;1.00
4795;DHT22;2411;47.060;15.064;2023-04-08T15:06:17;5.50;1.00
4795;DHT22;2411;47.060;15.064;2023-04-08T15:08:46;5.40;1.00
4795;DHT22;2411;47.060;15.064;2023-04-08T15:11:13;5.30;1.00
4795;DHT22;2411;47.060;15.064;2023-04-08T15:13:41;5.40;1.00
4795;DHT22;2411;47.060;15.064;2023-04-08T15:16:08;5.50;1.00
4795;DHT22;2411;47.060;15.064;2023-04-08T15:18:36;5.40;1.00
4795;DHT22;2411;47.060;15.064;2023-04-08T15:21:03;5.60;1.00
4795;DHT22;2411;47.060;15.064;2023-04-08T15:23:31;5.40;1.00
4795;DHT22;2411;47.060;15.064;2023-04-08T15:25:58;5.40;1.00
4795;DHT22;2411;47.060;15.064;2023-04-08T15:28:26;5.40;1.00
4795;DHT22;2411;47.060;15.064;2023-04-08T15:30:53;5.30;1.00
4795;DHT22;2411;47.060;15.064;2023-04-08T15:33:20;5.50;1.00
4795;DHT22;2411;47.060;15.064;2023-04-08T15:35:48;5.40;1.00
4795;DHT22;2411;47.060;15.064;2023-04-08T15:38:15;5.40;1.00
4795;DHT22;2411;47.060;15.064;2023-04-08T15:40:43;5.30;1.00
4795;DHT22;2411;47.060;15.064;2023-04-08T15:43:14;5.30;1.00
4795;DHT22;2411;47.060;15.064;2023-04-08T15:45:42;5.30;1.00
4795;DHT22;2411;47.060;15.064;2023-04-08T15:48:10;5.20;1.00
4795;DHT22;2411;47.060;15.064;2023-04-08T15:50:37;5.10;1.00
4795;DHT22;2411;47.060;15.064;2023-04-08T15:53:05;5.10;1.00
4795;DHT22;2411;47.060;15.064;2023-04-08T15:55:39;5.30;1.00
4795;DHT22;2411;47.060;15.064;2023-04-08T15:58:07;5.20;1.00
4795;DHT22;2411;47.060;15.064;2023-04-08T16:00:34;5.10;1.00
4795;DHT22;2411;47.060;15.064;2023-04-08T16:03:02;5.20;1.00
4795;DHT22;2411;47.060;15.064;2023-04-08T16:05:31;5.20;1.00
4795;DHT22;2411;47.060;15.064;2023-04-08T16:08:02;5.10;1.00
4795;DHT22;2411;47.060;15.064;2023-04-08T16:10:30;5.10;1.00
4795;DHT22;2411;47.060;15.064;2023-04-08T16:12:57;5.20;1.00
4795;DHT22;2411;47.060;15.064;2023-04-08T16:15:25;5.10;1.00
4795;DHT22;2411;47.060;15.064;2023-04-08T16:17:52;5.20;1.00
4795;DHT22;2411;47.060;15.064;2023-04-08T16:20:20;5.00;1.00
4795;DHT22;2411;47.060;15.064;2023-04-08T16:22:47;5.20;1.00
4795;DHT22;2411;47.060;15.064;2023-04-08T16:25:16;5.10;1.00
4795;DHT22;2411;47.060;15.064;2023-04-08T16:27:43;5.20;1.00
4795;DHT22;2411;47.060;15.064;2023-04-08T16:30:11;5.30;1.00
4795;DHT22;2411;47.060;15.064;2023-04-08T16:32:38;5.10;1.00
4795;DHT22;2411;47.060;15.064;2023-04-08T16:35:06;5.20;1.00
4795;DHT22;2411;47.060;15.064;2023-04-08T16:37:33;5.10;1.00
4795;DHT22;2411;47.060;15.064;2023-04-08T16:40:01;5.10;1.00